Time;durP1;ratioP1;P1;durP2;ratioP2;P2;SDS_P1;SDS_P2;PMS_P1;PMS_P2;Temp;Humidity;BMP_temperature;BMP_pressure;BME280_temperature;BME280_humidity;BME280_pressure;Samples;Min_cycle;Max_cycle;Signal;HPM_P1;HPM_P2
2022/09/25 06:35:18;;;;;;;;;22.00;17.60;;;;;15.05;52.57;99312.88;5102017;27;13468;-70
2022/09/25 06:37:47;;;;;;;;;25.60;24.20;;;;;15.54;51.89;99309.09;5085212;28;8882;-71
2022/09/25 06:40:16;;;;;;;;;24.40;22.40;;;;;16.05;50.98;99297.28;5079296;28;8850;-69
2022/09/25 06:42:44;;;;;;;;;15.40;14.80;;;;;16.49;48.55;99297.84;5072890;28;8865;-71
2022/09/25 06:45:14;;;;;;;;;19.20;18.00;;;;;16.84;47.57;99290.69;5063136;28;8891;-70
2022/09/25 06:47:42;;;;;;;;;28.00;28.00;;;;;17.22;46.38;99296.53;5096843;28;8880;-71
2022/09/25 06:50:11;;;;;;;;;21.40;20.60;;;;;17.47;45.81;99294.84;5080937;28;8838;-70
2022/09/25 06:52:43;;;;;;;;;25.40;22.20;;;;;17.81;45.61;99300.78;5063908;28;8876;-70
2022/09/25 06:55:12;;;;;;;;;17.60;16.40;;;;;18.08;44.63;99291.94;5064410;28;8881;-70
2022/09/25 06:57:40;;;;;;;;;19.40;15.80;;;;;18.35;43.53;99301.56;5063958;28;8883;-72
2022/09/25 07:00:10;;;;;;;;;19.80;17.60;;;;;18.59;43.27;99297.16;5077189;28;8888;-71
2022/09/25 07:05:24;;;;;;;;;19.40;18.40;;;;;19.08;42.27;99304.09;5083771;28;8854;-70
2022/09/25 07:07:55;;;;;;;;;18.60;18.20;;;;;19.27;41.47;99306.00;5064875;28;8867;-72
2022/09/25 07:10:23;;;;;;;;;22.20;19.00;;;;;19.28;41.63;99295.38;5077841;28;8980;-71
2022/09/25 07:12:53;;;;;;;;;21.00;18.80;;;;;19.51;41.38;99292.69;5075125;28;8931;-72
2022/09/25 07:15:21;;;;;;;;;21.00;18.60;;;;;19.75;41.64;99302.28;5080121;28;8854;-71
2022/09/25 07:17:50;;;;;;;;;20.40;15.80;;;;;19.96;40.58;99304.94;5085064;28;8846;-69
2022/09/25 07:20:20;;;;;;;;;16.20;14.60;;;;;20.02;39.96;99300.25;5047969;28;8854;-72
2022/09/25 07:22:48;;;;;;;;;16.00;16.00;;;;;20.17;40.33;99292.56;5081329;28;8903;-74
2022/09/25 07:25:18;;;;;;;;;16.60;16.40;;;;;20.38;39.94;99304.88;5082221;28;8869;-72
2022/09/25 07:27:47;;;;;;;;;7.60;4.60;;;;;20.55;39.65;99317.34;5072268;28;8863;-72
2022/09/25 07:30:16;;;;;;;;;17.20;15.20;;;;;20.60;39.44;99310.09;5066576;28;8897;-70
2022/09/25 07:32:44;;;;;;;;;15.20;14.00;;;;;20.67;38.31;99307.16;5072430;28;8879;-71
2022/09/25 07:35:13;;;;;;;;;17.40;16.60;;;;;20.87;38.45;99312.41;5082677;28;8936;-74
2022/09/25 07:37:41;;;;;;;;;15.20;13.60;;;;;20.96;38.20;99306.69;5101218;28;9593;-71
2022/09/25 07:40:12;;;;;;;;;18.80;17.00;;;;;21.04;37.88;99301.00;5104216;28;8829;-73
2022/09/25 07:42:42;;;;;;;;;16.60;15.60;;;;;21.19;37.44;99294.09;5068008;28;8877;-75
2022/09/25 07:45:11;;;;;;;;;14.40;14.20;;;;;21.34;37.37;99297.78;5099104;28;8866;-75
2022/09/25 07:47:39;;;;;;;;;17.00;15.00;;;;;21.49;37.02;99305.03;5071305;28;9611;-78
2022/09/25 07:50:09;;;;;;;;;13.80;13.80;;;;;21.44;36.27;99296.44;5054767;28;8858;-73
2022/09/25 07:52:42;;;;;;;;;11.20;11.20;;;;;21.64;36.26;99303.41;5040491;28;8849;-72
2022/09/25 07:55:11;;;;;;;;;15.40;14.40;;;;;21.76;35.81;99305.47;5071830;28;8856;-75
2022/09/25 07:57:40;;;;;;;;;17.40;16.00;;;;;21.90;36.08;99298.59;5090086;28;9001;-72
2022/09/25 08:00:12;;;;;;;;;14.00;13.00;;;;;22.03;35.64;99304.13;5071856;28;8984;-74
2022/09/25 08:02:42;;;;;;;;;16.20;15.40;;;;;21.96;35.73;99308.88;5034253;28;8856;-73
2022/09/25 08:05:11;;;;;;;;;19.20;18.40;;;;;22.23;35.77;99309.28;5051621;28;9783;-76
2022/09/25 08:07:40;;;;;;;;;15.80;15.00;;;;;22.18;35.27;99303.34;5075731;28;8857;-72
2022/09/25 08:10:08;;;;;;;;;16.20;15.60;;;;;22.44;34.78;99306.44;5089643;28;8838;-73
2022/09/25 08:12:39;;;;;;;;;14.60;12.60;;;;;22.66;34.58;99304.34;5089912;28;8883;-72
2022/09/25 08:15:12;;;;;;;;;12.40;9.40;;;;;22.86;34.07;99299.75;5088043;28;8874;-71
2022/09/25 08:17:41;;;;;;;;;13.80;13.20;;;;;23.01;33.52;99312.19;5089628;28;8861;-73
2022/09/25 08:20:10;;;;;;;;;12.00;12.00;;;;;23.21;33.40;99316.41;5087711;28;8951;-74
2022/09/25 08:22:38;;;;;;;;;15.00;13.60;;;;;23.35;33.98;99310.31;5090141;28;8834;-76
2022/09/25 08:25:08;;;;;;;;;11.40;11.40;;;;;23.51;33.78;99303.16;5089569;28;9083;-74
2022/09/25 08:27:39;;;;;;;;;13.80;13.40;;;;;23.64;32.93;99307.78;5089689;28;9013;-72
2022/09/25 08:30:12;;;;;;;;;14.20;14.20;;;;;23.62;32.92;99305.19;5069881;28;8845;-73
2022/09/25 08:32:40;;;;;;;;;13.80;12.60;;;;;23.59;32.93;99300.06;5054730;28;8951;-73
2022/09/25 08:35:10;;;;;;;;;13.20;11.40;;;;;23.63;32.39;99304.28;5053818;28;8892;-71
2022/09/25 08:37:41;;;;;;;;;12.00;11.80;;;;;23.77;32.55;99307.94;5060664;28;8932;-73
2022/09/25 08:40:18;;;;;;;;;13.80;13.80;;;;;23.92;33.01;99310.56;5080431;28;8866;-72
2022/09/25 08:42:51;;;;;;;;;11.80;11.20;;;;;23.99;31.84;99313.72;5077195;28;9685;-72
2022/09/25 08:51:10;;;;;;;;;11.60;11.60;;;;;24.20;31.02;99310.72;5089692;28;8927;-73
2022/09/25 08:53:42;;;;;;;;;12.00;11.40;;;;;24.11;31.41;99314.78;5060996;28;8847;-73
2022/09/25 08:56:16;;;;;;;;;16.00;13.20;;;;;24.31;31.32;99314.44;5068408;28;9625;-75
2022/09/25 08:58:51;;;;;;;;;12.60;12.60;;;;;23.89;32.04;99313.44;5067965;28;10083;-72
2022/09/25 09:01:24;;;;;;;;;16.60;14.00;;;;;23.79;31.80;99314.91;5068998;28;8860;-73
2022/09/25 09:04:03;;;;;;;;;11.00;11.00;;;;;23.22;32.38;99315.47;5068882;28;8925;-74
2022/09/25 09:06:33;;;;;;;;;11.20;10.20;;;;;23.47;31.86;99301.63;5068177;28;8856;-74
2022/09/25 09:09:11;;;;;;;;;17.00;15.00;;;;;23.77;31.41;99299.94;5068463;28;8836;-74
2022/09/25 09:11:44;;;;;;;;;13.60;11.20;;;;;24.06;31.12;99293.75;5078035;28;8977;-73
2022/09/25 09:14:16;;;;;;;;;16.40;15.00;;;;;24.24;31.27;99289.13;5068693;28;8832;-74
2022/09/25 09:16:52;;;;;;;;;9.80;9.80;;;;;24.46;30.14;99286.00;5074277;28;8850;-74
2022/09/25 09:19:20;;;;;;;;;9.20;9.20;;;;;24.64;30.12;99294.66;5070022;28;8862;-75
2022/09/25 09:21:59;;;;;;;;;9.80;9.80;;;;;24.81;29.80;99282.09;5088802;28;8856;-76
2022/09/25 09:24:39;;;;;;;;;11.80;9.60;;;;;24.86;28.96;99278.16;5077893;28;8840;-75
2022/09/25 09:27:23;;;;;;;;;9.60;9.40;;;;;24.65;29.05;99282.19;5076371;28;8882;-75
2022/09/25 09:30:03;;;;;;;;;10.40;9.20;;;;;24.46;28.66;99270.00;5017888;28;8892;-76
2022/09/25 09:32:49;;;;;;;;;8.80;8.00;;;;;24.89;29.38;99271.78;5087592;28;8976;-74
2022/09/25 09:35:30;;;;;;;;;10.40;9.40;;;;;24.92;29.07;99265.41;5035100;28;8875;-76
2022/09/25 09:38:13;;;;;;;;;8.00;8.00;;;;;24.97;27.96;99257.94;5025666;28;8867;-77
2022/09/25 09:41:00;;;;;;;;;9.40;9.20;;;;;25.19;27.88;99255.59;5041812;28;8891;-80
2022/09/25 09:43:43;;;;;;;;;7.20;7.20;;;;;25.35;28.07;99254.59;5032862;28;8926;-81
2022/09/25 09:46:21;;;;;;;;;9.80;9.20;;;;;25.57;28.12;99251.38;5045163;28;8921;-82
2022/09/25 09:49:03;;;;;;;;;7.40;7.40;;;;;25.87;27.37;99254.59;5043548;28;8878;-83
2022/09/25 09:51:37;;;;;;;;;8.00;8.00;;;;;25.96;26.47;99247.81;5036336;28;8864;-80
2022/09/25 09:54:13;;;;;;;;;8.60;7.20;;;;;26.06;25.63;99251.56;5040057;28;8861;-83
2022/09/25 09:56:46;;;;;;;;;5.80;5.60;;;;;26.20;25.30;99249.72;5045203;28;9994;-81
2022/09/25 09:59:18;;;;;;;;;5.80;5.80;;;;;26.37;25.39;99251.22;5031486;28;8947;-80
2022/09/25 10:02:03;;;;;;;;;10.00;9.20;;;;;26.59;25.53;99245.22;5035179;28;8853;-79
2022/09/25 10:04:37;;;;;;;;;11.20;10.60;;;;;25.62;25.25;99251.91;4981489;28;9018;-80
2022/09/25 10:07:12;;;;;;;;;9.80;9.20;;;;;25.97;25.70;99254.00;5030696;28;9009;-82
2022/09/25 10:09:41;;;;;;;;;9.00;9.00;;;;;26.09;25.54;99257.66;5054234;28;8872;-80
2022/09/25 10:12:20;;;;;;;;;11.40;10.00;;;;;26.40;25.68;99262.56;5033203;28;8841;-82
2022/09/25 10:14:49;;;;;;;;;6.80;6.80;;;;;26.61;26.00;99257.53;5031175;28;9007;-81
2022/09/25 10:17:21;;;;;;;;;8.80;8.20;;;;;26.14;25.38;99266.22;4996398;28;8857;-80
2022/09/25 10:19:56;;;;;;;;;6.60;6.60;;;;;26.20;25.18;99266.66;5026941;28;8944;-79
2022/09/25 10:22:27;;;;;;;;;11.00;11.00;;;;;26.02;25.65;99263.41;5056517;28;8849;-76
2022/09/25 10:25:00;;;;;;;;;12.00;11.00;;;;;26.16;26.12;99256.25;5043223;28;8888;-74
2022/09/25 10:27:33;;;;;;;;;8.20;8.00;;;;;25.74;25.72;99263.56;5045297;28;9606;-76
2022/09/25 10:30:19;;;;;;;;;11.60;9.80;;;;;26.09;26.20;99257.66;5038860;28;8878;-74
2022/09/25 10:32:57;;;;;;;;;12.40;11.40;;;;;26.21;24.98;99254.13;5027250;28;8914;-75
2022/09/25 10:35:30;;;;;;;;;12.00;12.00;;;;;25.84;25.66;99259.31;5060001;28;8858;-73
2022/09/25 10:38:01;;;;;;;;;9.40;9.40;;;;;25.21;26.13;99252.81;5050883;28;8853;-74
2022/09/25 10:40:32;;;;;;;;;11.20;10.80;;;;;24.41;27.50;99247.25;5026079;28;8942;-78
2022/09/25 10:43:17;;;;;;;;;9.40;8.40;;;;;24.77;27.39;99248.56;5065825;28;8870;-80
2022/09/25 10:45:47;;;;;;;;;8.00;8.00;;;;;24.42;27.11;99243.63;5047481;28;8865;-78
2022/09/25 10:51:17;;;;;;;;;9.00;9.00;;;;;25.19;27.34;99239.56;5039019;28;8982;-77
2022/09/25 10:53:47;;;;;;;;;10.60;8.60;;;;;25.56;26.98;99237.16;4988270;28;8887;-77
2022/09/25 10:56:26;;;;;;;;;13.20;11.00;;;;;25.96;26.40;99230.94;4987567;28;8873;-77
2022/09/25 10:58:57;;;;;;;;;9.00;9.00;;;;;26.09;26.07;99233.59;5007195;28;9036;-79
2022/09/25 11:01:34;;;;;;;;;11.20;10.00;;;;;25.63;26.03;99227.78;5001251;28;8881;-80
2022/09/25 11:04:05;;;;;;;;;15.40;13.60;;;;;25.68;26.15;99222.97;5023672;28;8944;-80
2022/09/25 11:06:37;;;;;;;;;13.60;12.80;;;;;25.84;25.81;99214.75;5006892;28;9067;-78
2022/09/25 11:09:12;;;;;;;;;9.00;8.20;;;;;25.82;25.63;99222.03;5002082;28;8849;-78
2022/09/25 11:11:42;;;;;;;;;10.00;9.80;;;;;26.10;25.63;99219.28;5005910;28;8924;-77
2022/09/25 11:14:21;;;;;;;;;10.80;10.00;;;;;26.40;26.03;99214.44;5005477;28;8858;-78
2022/09/25 11:16:52;;;;;;;;;10.60;10.00;;;;;26.60;25.48;99215.72;5007645;28;8870;-77
2022/09/25 11:19:28;;;;;;;;;12.00;12.00;;;;;26.81;25.91;99218.63;5021441;28;8915;-78
2022/09/25 11:22:16;;;;;;;;;11.20;10.00;;;;;26.06;25.10;99218.63;5010679;28;8866;-80
2022/09/25 11:24:57;;;;;;;;;9.00;8.60;;;;;26.41;25.30;99220.66;4994621;28;8858;-78
2022/09/25 11:27:36;;;;;;;;;9.60;8.60;;;;;26.55;25.13;99214.31;4994288;28;8854;-75
2022/09/25 11:30:11;;;;;;;;;10.40;9.20;;;;;26.15;25.47;99209.97;5027585;28;8854;-75
2022/09/25 11:32:47;;;;;;;;;9.20;8.40;;;;;26.46;25.27;99207.78;5048873;28;8982;-77
2022/09/25 11:35:47;;;;;;;;;9.80;9.60;;;;;26.54;25.12;99208.09;5061968;28;8975;-77
2022/09/25 11:41:21;;;;;;;;;11.20;11.20;;;;;26.61;24.54;99204.03;5064036;28;8864;-76
2022/09/25 11:44:10;;;;;;;;;11.20;11.20;;;;;26.77;25.16;99203.78;5028022;28;8881;-75
2022/09/25 11:46:49;;;;;;;;;7.00;7.00;;;;;26.78;25.06;99193.94;5051144;28;8900;-75
2022/09/25 11:49:23;;;;;;;;;10.40;10.40;;;;;26.84;24.75;99186.31;5064559;28;8865;-75
2022/09/25 11:52:29;;;;;;;;;14.60;14.00;;;;;27.08;25.79;99182.78;5060828;28;8910;-67
2022/09/25 11:55:35;;;;;;;;;11.80;11.00;;;;;27.14;24.44;99181.47;5068514;28;8866;-68
2022/09/25 11:58:20;;;;;;;;;9.00;9.00;;;;;27.09;24.87;99179.16;5067022;28;8850;-69
2022/09/25 12:00:57;;;;;;;;;10.00;10.00;;;;;27.00;24.99;99177.16;5069021;28;8835;-67
2022/09/25 12:03:36;;;;;;;;;9.80;9.80;;;;;27.12;25.12;99175.38;5069005;28;8870;-70
2022/09/25 12:06:28;;;;;;;;;12.20;12.00;;;;;27.12;24.69;99160.16;5069033;28;9581;-64
2022/09/25 12:09:13;;;;;;;;;13.60;11.80;;;;;27.04;24.60;99158.06;5068135;28;9945;-71
2022/09/25 12:11:53;;;;;;;;;17.20;16.80;;;;;26.99;23.88;99159.38;5069181;28;8897;-71
2022/09/25 12:14:32;;;;;;;;;15.20;14.60;;;;;27.01;23.82;99162.78;5050240;28;8870;-67
2022/09/25 12:17:09;;;;;;;;;14.80;13.80;;;;;26.84;23.45;99156.00;5067804;28;9612;-77
2022/09/25 12:19:44;;;;;;;;;23.20;21.60;;;;;26.82;23.49;99161.50;5049110;28;8879;-76
2022/09/25 12:22:22;;;;;;;;;11.00;11.00;;;;;26.24;24.13;99163.88;5065330;28;8979;-75
2022/09/25 12:25:02;;;;;;;;;8.20;7.40;;;;;25.65;24.21;99166.22;5069060;28;8892;-75
2022/09/25 12:27:45;;;;;;;;;7.80;7.00;;;;;25.58;24.22;99160.47;5066526;28;8872;-79
2022/09/25 12:30:22;;;;;;;;;6.00;4.40;;;;;25.83;24.63;99153.41;5070224;28;8924;-76
2022/09/25 12:33:11;;;;;;;;;13.00;13.00;;;;;26.05;24.75;99147.47;5051754;28;8999;-76
2022/09/25 12:35:50;;;;;;;;;14.60;14.60;;;;;26.11;24.77;99146.19;5045284;28;8873;-78
2022/09/25 12:38:31;;;;;;;;;12.80;12.20;;;;;26.20;24.71;99153.50;5028715;28;8892;-76
2022/09/25 12:41:07;;;;;;;;;7.20;6.60;;;;;26.23;24.78;99143.44;5014806;28;8881;-76
2022/09/25 12:43:42;;;;;;;;;10.40;10.40;;;;;26.31;25.11;99142.06;5038954;28;8850;-75
2022/09/25 12:46:18;;;;;;;;;12.80;9.40;;;;;26.31;25.29;99134.88;5033742;28;8889;-74
2022/09/25 12:48:51;;;;;;;;;9.40;9.40;;;;;26.34;25.45;99134.66;5044149;28;8869;-75
2022/09/25 12:51:27;;;;;;;;;12.80;11.00;;;;;26.45;25.44;99117.84;5047192;28;8953;-75
2022/09/25 12:53:59;;;;;;;;;10.80;9.80;;;;;26.51;25.81;99124.56;5049483;28;8850;-76
2022/09/25 12:56:33;;;;;;;;;12.20;11.60;;;;;26.54;25.69;99116.31;5059835;28;8866;-76
2022/09/25 12:59:12;;;;;;;;;15.40;14.40;;;;;26.52;26.01;99116.44;5038683;28;8996;-75
2022/09/25 13:01:51;;;;;;;;;17.80;17.80;;;;;26.56;25.91;99114.38;5048737;28;9804;-72
2022/09/25 13:04:44;;;;;;;;;13.60;12.60;;;;;26.54;25.34;99116.31;5046884;28;8858;-72
2022/09/25 13:07:19;;;;;;;;;11.60;11.60;;;;;26.45;25.81;99118.69;5032956;28;8861;-71
2022/09/25 13:09:49;;;;;;;;;11.00;10.60;;;;;26.44;26.04;99106.28;5035305;28;8834;-71
2022/09/25 13:12:31;;;;;;;;;13.40;12.00;;;;;26.41;26.10;99105.69;5046925;28;8880;-72
2022/09/25 13:15:08;;;;;;;;;10.80;8.80;;;;;26.38;26.01;99101.38;5028369;28;8857;-71
2022/09/25 13:17:38;;;;;;;;;10.60;10.60;;;;;26.32;25.99;99098.31;5028501;28;8896;-72
2022/09/25 13:20:42;;;;;;;;;10.00;9.20;;;;;26.39;26.31;99087.06;5030155;28;8872;-72
2022/09/25 13:23:14;;;;;;;;;10.20;9.60;;;;;26.24;26.35;99088.19;5044979;28;8887;-73
2022/09/25 13:25:46;;;;;;;;;7.60;5.60;;;;;26.25;26.47;99081.88;5028415;28;8995;-71
2022/09/25 13:28:25;;;;;;;;;9.60;9.60;;;;;26.17;26.68;99077.06;5060341;28;9832;-70
2022/09/25 13:31:08;;;;;;;;;13.00;10.00;;;;;26.23;26.76;99078.44;5048020;28;8904;-72
2022/09/25 13:33:44;;;;;;;;;9.40;8.80;;;;;26.08;27.11;99071.56;5060326;28;8865;-71
2022/09/25 13:36:37;;;;;;;;;9.00;7.80;;;;;26.14;27.41;99077.28;5087583;28;8908;-71
2022/09/25 13:42:06;;;;;;;;;12.00;9.60;;;;;25.89;28.03;99075.50;5012628;28;9699;-71
2022/09/25 13:45:25;;;;;;;;;10.00;10.00;;;;;25.91;28.14;99072.72;5025012;28;9621;-70
2022/09/25 13:48:01;;;;;;;;;10.20;10.00;;;;;25.74;28.38;99074.78;5006937;28;8847;-70
2022/09/25 13:50:45;;;;;;;;;18.00;14.00;;;;;25.77;28.50;99071.06;5006441;28;8858;-71
2022/09/25 13:53:23;;;;;;;;;10.40;10.40;;;;;25.60;28.51;99066.91;5006397;28;9001;-71
2022/09/25 13:56:25;;;;;;;;;16.20;15.00;;;;;25.53;28.68;99065.63;5005543;28;9593;-70
2022/09/25 13:59:16;;;;;;;;;10.40;10.40;;;;;25.41;29.14;99067.34;5005584;28;8944;-71
2022/09/25 14:01:46;;;;;;;;;11.40;11.20;;;;;25.27;29.53;99060.28;4988375;28;9727;-72
2022/09/25 14:04:31;;;;;;;;;18.80;17.40;;;;;25.26;29.27;99059.41;5004505;28;8874;-70
2022/09/25 14:07:23;;;;;;;;;11.40;11.00;;;;;25.26;29.28;99059.41;4989352;28;8845;-71
2022/09/25 14:09:55;;;;;;;;;21.20;21.20;;;;;25.10;30.09;99056.06;4966436;28;8871;-72
2022/09/25 14:12:32;;;;;;;;;8.60;8.60;;;;;25.00;30.01;99047.84;4950338;28;9641;-72
2022/09/25 14:15:06;;;;;;;;;11.20;10.80;;;;;25.04;30.26;99045.81;4970072;28;9022;-71
2022/09/25 14:17:36;;;;;;;;;11.00;11.00;;;;;25.02;30.47;99039.72;4987679;28;8867;-74
2022/09/25 14:20:27;;;;;;;;;11.60;11.00;;;;;25.06;30.49;99034.06;5024451;28;8871;-71
2022/09/25 14:22:58;;;;;;;;;9.40;9.00;;;;;24.95;30.75;99041.94;5008494;28;9744;-71
2022/09/25 14:25:32;;;;;;;;;11.00;10.40;;;;;24.96;30.58;99043.66;5025105;28;8887;-73
2022/09/25 14:28:03;;;;;;;;;11.80;9.80;;;;;24.88;30.46;99043.34;5024789;28;8909;-76
2022/09/25 14:30:32;;;;;;;;;12.40;10.00;;;;;24.88;31.08;99048.69;5024587;28;8909;-70
2022/09/25 14:33:27;;;;;;;;;10.60;10.00;;;;;24.91;30.48;99056.47;5023116;28;8990;-74
2022/09/25 14:36:05;;;;;;;;;13.00;13.00;;;;;24.86;30.40;99063.94;5005775;28;9652;-74
2022/09/25 14:38:54;;;;;;;;;14.40;13.00;;;;;24.91;30.16;99053.78;5005728;28;8914;-76
2022/09/25 14:41:56;;;;;;;;;12.20;11.80;;;;;24.95;30.47;99052.63;5021230;28;9570;-75
2022/09/25 14:44:49;;;;;;;;;10.00;9.40;;;;;24.88;29.98;99057.53;4898448;29;8857;-77
2022/09/25 14:47:20;;;;;;;;;14.80;14.60;;;;;24.75;30.17;99056.66;4983207;28;9041;-74
2022/09/25 14:49:53;;;;;;;;;15.00;13.40;;;;;24.75;30.24;99051.31;5001713;28;8875;-74
2022/09/25 14:52:28;;;;;;;;;14.00;13.00;;;;;24.75;30.24;99053.13;5000889;28;8850;-76
2022/09/25 14:54:59;;;;;;;;;14.20;14.20;;;;;24.71;30.48;99050.66;5002424;28;9008;-74
2022/09/25 14:57:33;;;;;;;;;12.20;11.20;;;;;24.71;30.40;99042.66;5006285;28;8882;-75
2022/09/25 15:00:04;;;;;;;;;11.40;11.40;;;;;24.67;30.35;99048.31;5005227;28;8886;-75
2022/09/25 15:02:38;;;;;;;;;16.00;15.20;;;;;24.69;30.93;99057.91;5006199;28;8908;-73
2022/09/25 15:05:18;;;;;;;;;19.00;17.40;;;;;24.71;30.95;99050.66;4982913;28;8859;-73
2022/09/25 15:07:48;;;;;;;;;18.20;17.80;;;;;24.62;30.90;99055.75;4972473;28;8867;-76
2022/09/25 15:10:27;;;;;;;;;18.00;16.40;;;;;24.61;31.42;99064.69;4980471;28;8938;-74
2022/09/25 15:13:08;;;;;;;;;24.00;21.40;;;;;24.52;31.31;99056.38;4967076;28;8859;-75
2022/09/25 15:15:38;;;;;;;;;18.80;18.00;;;;;24.45;31.64;99055.03;4967492;28;8870;-75
2022/09/25 15:18:12;;;;;;;;;17.00;14.60;;;;;24.55;31.62;99051.78;4967740;28;8887;-75
2022/09/25 15:20:48;;;;;;;;;16.20;16.20;;;;;24.48;32.15;99041.50;4997925;28;8857;-74
2022/09/25 15:23:21;;;;;;;;;24.60;23.80;;;;;24.50;32.58;99039.59;5028209;28;8845;-77
2022/09/25 15:25:52;;;;;;;;;20.00;19.20;;;;;24.53;32.38;99041.22;5062683;28;8910;-76
2022/09/25 15:28:24;;;;;;;;;17.20;17.20;;;;;24.48;32.65;99052.16;5030967;28;8864;-74
2022/09/25 15:30:58;;;;;;;;;19.80;17.80;;;;;24.54;32.65;99045.59;5046985;28;8857;-75
2022/09/25 15:33:29;;;;;;;;;15.20;15.00;;;;;24.45;32.67;99033.69;5047815;28;8887;-77
2022/09/25 15:35:59;;;;;;;;;18.20;18.20;;;;;24.49;32.38;99040.53;4998809;28;8979;-75
2022/09/25 15:38:31;;;;;;;;;25.80;23.60;;;;;24.49;32.39;99042.34;5001809;28;8851;-76
2022/09/25 15:41:00;;;;;;;;;20.80;20.60;;;;;24.48;32.52;99038.84;5046416;28;8876;-76
2022/09/25 15:43:29;;;;;;;;;21.60;21.60;;;;;24.50;32.44;99036.91;5035671;28;8873;-76
2022/09/25 15:46:18;;;;;;;;;21.80;20.80;;;;;24.49;32.63;99035.19;5021728;28;8968;-77
2022/09/25 15:48:54;;;;;;;;;28.60;26.00;;;;;24.55;32.28;99035.78;5050280;28;9669;-73
2022/09/25 15:51:26;;;;;;;;;17.40;16.20;;;;;24.51;32.64;99037.78;5085007;28;8884;-75
2022/09/25 15:53:59;;;;;;;;;22.20;21.40;;;;;24.53;32.55;99038.56;5051741;28;8842;-75
2022/09/25 15:56:30;;;;;;;;;20.40;18.80;;;;;24.48;32.58;99040.63;5071518;28;8923;-73
2022/09/25 15:59:02;;;;;;;;;18.80;16.60;;;;;24.49;32.72;99043.19;5072234;28;8941;-74
2022/09/25 16:04:45;;;;;;;;;14.20;13.60;;;;;24.46;33.11;99034.53;5071747;28;8861;-75
2022/09/25 16:07:27;;;;;;;;;18.60;17.00;;;;;24.45;32.88;99036.38;5055513;28;8854;-75
2022/09/25 16:10:04;;;;;;;;;20.80;17.20;;;;;24.42;33.13;99033.88;5076968;28;8869;-75
2022/09/25 16:12:34;;;;;;;;;20.40;18.20;;;;;24.36;33.26;99036.97;5063277;28;8854;-75
2022/09/25 16:15:43;;;;;;;;;17.00;16.00;;;;;24.04;33.83;99028.41;5071572;28;8873;-75
2022/09/25 16:18:39;;;;;;;;;19.20;18.00;;;;;23.61;34.53;99028.44;5048556;28;8862;-74
2022/09/25 16:21:19;;;;;;;;;23.20;20.80;;;;;23.32;35.68;99028.44;4985870;28;8856;-76
2022/09/25 16:23:54;;;;;;;;;20.20;20.20;;;;;23.35;35.76;99029.09;5026465;28;8862;-75
2022/09/25 16:26:30;;;;;;;;;22.20;20.80;;;;;23.52;35.77;99024.56;5027278;28;8847;-76
2022/09/25 16:29:04;;;;;;;;;18.00;17.00;;;;;23.53;36.05;99029.78;5010334;28;9029;-74
2022/09/25 16:31:35;;;;;;;;;21.20;20.00;;;;;23.64;36.04;99026.44;5025441;28;8843;-77
2022/09/25 16:34:05;;;;;;;;;20.80;19.00;;;;;23.67;36.05;99028.91;5009207;28;8883;-76
2022/09/25 16:36:41;;;;;;;;;17.80;17.80;;;;;23.71;36.38;99027.75;5023674;28;8839;-78
2022/09/25 16:39:22;;;;;;;;;15.00;15.00;;;;;23.70;36.50;99023.38;5010295;28;8890;-77
2022/09/25 16:41:53;;;;;;;;;17.60;16.80;;;;;23.68;36.31;99021.78;5007704;28;8874;-75
2022/09/25 16:44:34;;;;;;;;;15.60;15.60;;;;;23.65;36.86;99030.81;4992432;28;8878;-77
2022/09/25 16:47:15;;;;;;;;;22.80;21.00;;;;;23.64;37.31;99033.56;4941795;28;8874;-78
2022/09/25 16:49:44;;;;;;;;;14.80;14.80;;;;;23.57;37.73;99038.41;5006670;28;8918;-75
2022/09/25 16:52:21;;;;;;;;;18.40;18.40;;;;;23.64;37.40;99036.25;4996612;28;8861;-75
2022/09/25 16:54:56;;;;;;;;;21.40;21.40;;;;;23.63;37.64;99038.06;4999950;28;8847;-76
2022/09/25 16:57:32;;;;;;;;;17.60;17.40;;;;;23.62;37.98;99033.66;5033923;28;9683;-76
2022/09/25 17:00:01;;;;;;;;;21.20;20.20;;;;;23.77;37.55;99028.34;5059639;28;8946;-75
2022/09/25 17:02:35;;;;;;;;;26.20;23.80;;;;;23.52;38.59;99029.88;5063932;28;8906;-77
2022/09/25 17:05:07;;;;;;;;;29.00;24.60;;;;;23.69;37.79;99035.00;5064441;28;8961;-77
2022/09/25 17:07:36;;;;;;;;;22.20;21.00;;;;;23.70;37.28;99042.00;5061481;28;8845;-77
2022/09/25 17:10:05;;;;;;;;;21.00;19.80;;;;;23.77;37.29;99039.00;5048357;28;9692;-79
2022/09/25 17:12:35;;;;;;;;;21.40;20.80;;;;;23.66;37.69;99034.31;5064283;28;8902;-77
2022/09/25 17:15:07;;;;;;;;;27.80;24.80;;;;;23.68;37.34;99032.44;5081939;28;8865;-76
2022/09/25 17:17:35;;;;;;;;;23.20;20.80;;;;;23.79;36.91;99026.47;5066677;28;8919;-75
2022/09/25 17:20:04;;;;;;;;;21.80;21.80;;;;;23.80;36.77;99036.16;5054340;28;9618;-76
2022/09/25 17:22:33;;;;;;;;;24.20;21.00;;;;;23.82;37.05;99047.56;5048621;28;8848;-78
2022/09/25 17:25:06;;;;;;;;;31.00;28.40;;;;;23.62;37.18;99038.16;5049084;28;8848;-77
2022/09/25 17:27:36;;;;;;;;;34.50;32.25;;;;;23.60;37.46;99048.88;5054799;28;8874;-81
2022/09/25 17:30:06;;;;;;;;;30.40;25.00;;;;;23.42;38.01;99042.91;5066548;28;8889;-76
2022/09/25 17:32:35;;;;;;;;;27.40;25.20;;;;;23.43;37.98;99054.41;5066306;28;8884;-78
2022/09/25 17:35:31;;;;;;;;;26.00;25.00;;;;;23.43;38.31;99052.59;5065827;28;8843;-76
2022/09/25 17:38:00;;;;;;;;;21.00;19.80;;;;;23.28;38.42;99050.88;5048795;28;9582;-78
2022/09/25 17:40:31;;;;;;;;;21.20;19.40;;;;;23.01;38.93;99048.91;5051675;28;8844;-79
2022/09/25 17:43:02;;;;;;;;;19.40;19.00;;;;;23.11;38.74;99049.22;5066368;28;8847;-77
2022/09/25 17:45:36;;;;;;;;;19.40;18.60;;;;;23.22;38.67;99044.13;5050818;28;8966;-79
2022/09/25 17:48:05;;;;;;;;;21.60;21.20;;;;;23.16;38.81;99048.00;5065182;28;8883;-78
2022/09/25 17:50:34;;;;;;;;;24.20;22.40;;;;;22.89;39.47;99049.59;5049393;28;8980;-80
2022/09/25 17:53:04;;;;;;;;;24.80;24.40;;;;;23.08;39.10;99044.06;5065777;28;8999;-78
2022/09/25 17:55:33;;;;;;;;;24.80;24.00;;;;;23.29;38.79;99047.25;5064519;28;8885;-80
2022/09/25 17:58:03;;;;;;;;;29.00;27.00;;;;;23.29;38.94;99045.47;5051752;28;8869;-79
2022/09/25 18:00:32;;;;;;;;;26.40;25.60;;;;;23.40;38.51;99054.56;5060739;28;8889;-77
2022/09/25 18:03:01;;;;;;;;;25.20;23.40;;;;;23.44;38.38;99051.66;5050629;28;9007;-76
2022/09/25 18:05:30;;;;;;;;;40.50;34.50;;;;;23.35;39.00;99058.38;5046140;28;8877;-78
2022/09/25 18:07:59;;;;;;;;;29.60;27.20;;;;;23.30;39.18;99049.81;5062150;28;8975;-79
2022/09/25 18:10:28;;;;;;;;;25.00;23.00;;;;;23.19;39.91;99070.88;5054732;28;9650;-78
2022/09/25 18:12:57;;;;;;;;;24.80;24.40;;;;;23.27;39.72;99070.44;5064059;28;8987;-81
2022/09/25 18:15:28;;;;;;;;;18.00;16.00;;;;;22.86;40.53;99071.94;5067196;28;8892;-79
2022/09/25 18:17:57;;;;;;;;;19.40;18.80;;;;;22.75;41.54;99069.03;5067220;28;8854;-79
2022/09/25 18:23:12;;;;;;;;;17.40;16.60;;;;;23.06;41.07;99064.59;5068519;28;8859;-78
2022/09/25 18:25:41;;;;;;;;;15.80;15.80;;;;;23.14;41.04;99057.03;5066186;28;8951;-76
2022/09/25 18:28:10;;;;;;;;;15.60;15.60;;;;;22.86;42.20;99058.63;5080071;28;8853;-78
2022/09/25 18:30:40;;;;;;;;;17.20;16.60;;;;;23.23;41.65;99042.31;5062397;28;8985;-78
2022/09/25 18:33:09;;;;;;;;;15.60;15.60;;;;;23.35;40.58;99042.41;5070463;28;8940;-77
2022/09/25 18:35:39;;;;;;;;;16.80;15.20;;;;;23.49;39.89;99038.03;5088907;28;8866;-76
2022/09/25 18:38:07;;;;;;;;;16.60;16.60;;;;;23.53;40.04;99040.44;5087357;28;8915;-76
2022/09/25 18:40:35;;;;;;;;;11.00;11.00;;;;;23.60;39.85;99040.91;5068537;28;8850;-76
2022/09/25 18:43:04;;;;;;;;;17.20;16.00;;;;;23.67;39.82;99041.38;5086986;28;8849;-77
2022/09/25 18:45:33;;;;;;;;;16.00;15.80;;;;;23.75;39.81;99041.75;5086185;28;8850;-77
2022/09/25 18:48:04;;;;;;;;;17.60;15.00;;;;;23.72;40.23;99033.94;5069002;28;8869;-79
2022/09/25 18:50:33;;;;;;;;;15.40;14.40;;;;;23.77;40.19;99042.50;5052284;28;8948;-76
2022/09/25 18:53:02;;;;;;;;;15.20;15.20;;;;;23.71;40.40;99038.41;5065832;28;8852;-79
2022/09/25 18:55:31;;;;;;;;;17.60;16.40;;;;;23.66;40.04;99042.31;5059640;28;8849;-75
2022/09/25 18:58:00;;;;;;;;;19.80;19.00;;;;;23.62;39.99;99033.66;5080141;28;9591;-75
2022/09/25 19:00:28;;;;;;;;;15.00;13.40;;;;;23.67;39.83;99042.22;5037684;28;8879;-77
2022/09/25 19:02:57;;;;;;;;;20.00;18.20;;;;;23.64;39.81;99030.91;5021988;28;8871;-79